Time;durP1;ratioP1;P1;durP2;ratioP2;P2;SDS_P1;SDS_P2;PMS_P1;PMS_P2;Temp;Humidity;BMP_temperature;BMP_pressure;BME280_temperature;BME280_humidity;BME280_pressure;Samples;Min_cycle;Max_cycle;Signal;HPM_P1;HPM_P2
2022/04/03 00:00:34;;;;;;;4.25;2.15;;;2.30;99.90;;;;;;5086584;28;20496;-77
2022/04/03 00:03:02;;;;;;;4.50;1.92;;;2.20;99.90;;;;;;5086582;28;20451;-77
2022/04/03 00:05:28;;;;;;;4.57;2.25;;;2.20;99.90;;;;;;5085881;28;20935;-77
2022/04/03 00:07:54;;;;;;;4.97;2.33;;;2.20;99.90;;;;;;5086512;28;20404;-77
2022/04/03 00:10:21;;;;;;;4.55;2.40;;;2.10;99.90;;;;;;5087036;28;20439;-77
2022/04/03 00:12:47;;;;;;;5.28;2.20;;;2.10;99.90;;;;;;5088255;28;20838;-77
2022/04/03 00:15:14;;;;;;;5.10;2.60;;;2.10;99.90;;;;;;5086471;28;20752;-77
2022/04/03 00:17:41;;;;;;;5.57;2.45;;;2.00;99.90;;;;;;5086603;28;20867;-77
2022/04/03 00:20:08;;;;;;;5.25;2.63;;;2.00;99.90;;;;;;5086719;28;20406;-77
2022/04/03 00:22:34;;;;;;;5.17;2.53;;;1.90;99.90;;;;;;5086536;28;20437;-77
2022/04/03 00:25:00;;;;;;;4.40;2.40;;;1.90;99.90;;;;;;5086494;28;20922;-77
2022/04/03 00:27:26;;;;;;;6.25;2.47;;;1.90;99.90;;;;;;5087919;28;20410;-77
2022/04/03 00:29:52;;;;;;;4.47;2.50;;;1.80;99.90;;;;;;5087598;28;20787;-77
2022/04/03 00:32:17;;;;;;;3.80;2.45;;;1.80;99.90;;;;;;5086080;28;20411;-77
2022/04/03 00:34:43;;;;;;;4.93;2.28;;;1.70;99.90;;;;;;5086352;28;20414;-77
2022/04/03 00:37:09;;;;;;;;;;;1.70;99.90;;;;;;5088305;28;20040;-77
2022/04/03 00:39:34;;;;;;;;;;;1.60;99.90;;;;;;5088171;28;19924;-77
2022/04/03 00:42:00;;;;;;;;;;;1.60;99.90;;;;;;5087498;28;20516;-77
2022/04/03 00:44:26;;;;;;;;;;;1.60;99.90;;;;;;5089284;28;20050;-77
2022/04/03 00:46:51;;;;;;;;;;;1.60;99.90;;;;;;5088092;28;19928;-77
2022/04/03 00:49:17;;;;;;;;;;;1.50;99.90;;;;;;5087986;28;19924;-77
2022/04/03 00:51:42;;;;;;;;;;;1.50;99.90;;;;;;5087400;28;20007;-77
2022/04/03 00:54:08;;;;;;;;;;;1.40;99.90;;;;;;5088554;28;20302;-77
2022/04/03 00:56:34;;;;;;;2.03;1.13;;;1.40;99.90;;;;;;5087215;28;19924;-77
2022/04/03 00:59:01;;;;;;;4.40;1.50;;;1.30;99.90;;;;;;5090559;28;20070;-77
2022/04/03 01:01:26;;;;;;;3.80;1.85;;;1.30;99.90;;;;;;5107594;28;20068;-76
2022/04/03 01:03:52;;;;;;;3.50;1.77;;;1.30;99.90;;;;;;5107562;28;20122;-76
2022/04/03 01:06:17;;;;;;;3.17;1.55;;;1.30;99.90;;;;;;5107576;28;20180;-76
2022/04/03 01:08:43;;;;;;;6.72;1.85;;;1.30;99.90;;;;;;5108767;28;20051;-76
2022/04/03 01:11:13;;;;;;;6.28;2.22;;;1.20;99.90;;;;;;5108065;28;20056;-76
2022/04/03 01:13:49;;;;;;;6.07;2.30;;;1.10;99.90;;;;;;5109398;28;20043;-77
2022/04/03 01:16:15;;;;;;;3.42;1.90;;;1.10;99.90;;;;;;5111345;28;20081;-77
2022/04/03 01:18:41;;;;;;;3.90;1.67;;;1.10;99.90;;;;;;5112297;28;20051;-77
2022/04/03 01:21:07;;;;;;;6.75;1.50;;;1.10;99.90;;;;;;5111536;28;20490;-76
2022/04/03 01:23:32;;;;;;;3.80;1.63;;;1.10;99.90;;;;;;5111050;28;20086;-77
2022/04/03 01:25:58;;;;;;;3.95;2.08;;;1.10;99.90;;;;;;5110748;28;20052;-77
2022/04/03 01:28:24;;;;;;;3.95;1.55;;;1.10;99.90;;;;;;5111029;28;20114;-77
2022/04/03 01:30:50;;;;;;;4.57;1.55;;;1.10;99.90;;;;;;5111204;28;20047;-77
2022/04/03 01:33:16;;;;;;;4.43;1.58;;;1.00;99.90;;;;;;5110760;28;20035;-77
2022/04/03 01:35:43;;;;;;;2.92;1.42;;;1.10;99.90;;;;;;5108771;28;20533;-76
2022/04/03 01:38:09;;;;;;;4.30;1.33;;;1.10;99.90;;;;;;5110217;28;20088;-76
2022/04/03 01:40:35;;;;;;;3.65;1.63;;;1.10;99.90;;;;;;5111262;28;20467;-77
2022/04/03 01:43:08;;;;;;;2.88;1.55;;;1.10;99.90;;;;;;5093697;28;20052;-77
2022/04/03 01:45:36;;;;;;;4.22;1.63;;;1.10;99.90;;;;;;5092831;28;20048;-77
2022/04/03 01:48:03;;;;;;;2.88;1.55;;;1.10;99.90;;;;;;5073373;28;20048;-77
2022/04/03 01:50:29;;;;;;;2.95;1.50;;;1.10;99.90;;;;;;5090258;28;20415;-76
2022/04/03 01:52:54;;;;;;;3.97;1.48;;;1.20;99.90;;;;;;5099028;28;20150;-77
2022/04/03 01:55:20;;;;;;;3.40;1.80;;;1.20;99.90;;;;;;5111805;28;20198;-77
2022/04/03 01:57:46;;;;;;;3.30;1.63;;;1.20;99.90;;;;;;5111800;28;20050;-77
2022/04/03 02:00:12;;;;;;;4.38;1.45;;;1.20;99.90;;;;;;5111631;28;20067;-76
2022/04/03 02:02:39;;;;;;;2.53;1.50;;;1.20;99.90;;;;;;5110429;28;20047;-77
2022/04/03 02:05:06;;;;;;;3.83;1.60;;;1.20;99.90;;;;;;5111379;28;20043;-77
2022/04/03 02:07:35;;;;;;;3.50;1.65;;;1.30;99.90;;;;;;5111649;28;20040;-77
2022/04/03 02:10:08;;;;;;;3.28;1.70;;;1.30;99.90;;;;;;5111617;28;20040;-77
2022/04/03 02:12:35;;;;;;;4.68;1.77;;;1.40;99.90;;;;;;5111329;28;20055;-76
2022/04/03 02:15:01;;;;;;;3.58;1.58;;;1.40;99.90;;;;;;5109717;28;20040;-77
2022/04/03 02:17:26;;;;;;;2.50;1.58;;;1.40;99.90;;;;;;5111554;28;20452;-76
2022/04/03 02:19:52;;;;;;;3.05;1.38;;;1.50;99.90;;;;;;5111269;28;20524;-77
2022/04/03 02:22:17;;;;;;;3.78;1.70;;;1.50;99.90;;;;;;5109932;28;20533;-77
2022/04/03 02:24:43;;;;;;;4.45;1.45;;;1.50;99.90;;;;;;5111439;28;20046;-77
2022/04/03 02:27:09;;;;;;;3.70;1.42;;;1.60;99.90;;;;;;5110777;28;20039;-77
2022/04/03 02:29:34;;;;;;;2.10;1.20;;;1.60;99.90;;;;;;5110836;28;20090;-77
2022/04/03 02:32:00;;;;;;;2.40;1.10;;;1.70;99.90;;;;;;5110058;28;20043;-77
2022/04/03 02:34:29;;;;;;;3.60;1.38;;;1.80;99.90;;;;;;5110879;28;20050;-77
2022/04/03 02:36:55;;;;;;;2.58;1.02;;;1.80;99.90;;;;;;5109748;28;20497;-77
2022/04/03 02:39:20;;;;;;;1.88;0.82;;;1.80;99.90;;;;;;5109274;28;20545;-77
2022/04/03 02:41:47;;;;;;;3.20;0.77;;;1.80;99.90;;;;;;5109379;28;20172;-77
2022/04/03 02:44:13;;;;;;;2.03;0.40;;;1.90;99.90;;;;;;5100046;28;20414;-77
2022/04/03 02:46:39;;;;;;;1.63;0.30;;;2.00;99.90;;;;;;5088988;28;20434;-77
2022/04/03 02:49:06;;;;;;;0.93;0.30;;;2.10;99.90;;;;;;5089392;28;20051;-77
2022/04/03 02:51:32;;;;;;;1.88;0.28;;;2.20;99.90;;;;;;5090332;28;20410;-77
2022/04/03 02:53:57;;;;;;;1.48;0.20;;;2.20;99.90;;;;;;5089131;28;20036;-77
2022/04/03 02:56:23;;;;;;;1.52;0.30;;;2.30;99.90;;;;;;5090016;28;20044;-77
2022/04/03 02:58:48;;;;;;;1.00;0.30;;;2.30;99.90;;;;;;5089273;28;20185;-77
2022/04/03 03:01:14;;;;;;;2.72;0.45;;;2.40;99.90;;;;;;5090450;28;20529;-77
2022/04/03 03:03:39;;;;;;;1.55;0.30;;;2.40;99.90;;;;;;5088953;28;20047;-77
2022/04/03 03:06:06;;;;;;;1.20;0.22;;;2.40;99.90;;;;;;5097222;28;20112;-77
2022/04/03 03:08:31;;;;;;;4.90;1.17;;;2.40;99.90;;;;;;5109110;28;20563;-77
2022/04/03 03:10:57;;;;;;;1.58;0.32;;;2.40;99.90;;;;;;5110886;28;20130;-77
2022/04/03 03:13:23;;;;;;;1.65;0.30;;;2.40;99.90;;;;;;5109022;28;20044;-77
2022/04/03 03:15:48;;;;;;;1.70;0.40;;;2.40;99.90;;;;;;5108655;28;20047;-77
2022/04/03 03:18:14;;;;;;;2.75;0.47;;;2.40;99.90;;;;;;5110598;28;20046;-77
2022/04/03 03:20:40;;;;;;;4.22;0.60;;;2.40;99.90;;;;;;5110013;28;20130;-77
2022/04/03 03:23:06;;;;;;;1.13;0.30;;;2.40;99.90;;;;;;5110348;28;20696;-77
2022/04/03 03:25:31;;;;;;;0.98;0.40;;;2.40;99.90;;;;;;5108421;28;20063;-77
2022/04/03 03:27:57;;;;;;;2.20;0.50;;;2.40;99.90;;;;;;5110085;28;20046;-77
2022/04/03 03:30:23;;;;;;;1.13;0.60;;;2.40;99.90;;;;;;5108948;28;20083;-77
2022/04/03 03:32:48;;;;;;;3.10;0.60;;;2.40;99.90;;;;;;5108752;28;20074;-77
2022/04/03 03:35:14;;;;;;;3.77;0.70;;;2.40;99.90;;;;;;5106632;28;20400;-77
2022/04/03 03:37:40;;;;;;;1.98;0.63;;;2.40;99.90;;;;;;5110033;28;20052;-77
2022/04/03 03:40:11;;;;;;;2.88;0.50;;;2.40;99.90;;;;;;5108414;28;20047;-77
2022/04/03 03:42:38;;;;;;;1.77;0.73;;;2.40;99.90;;;;;;5107656;28;20070;-77
2022/04/03 03:45:04;;;;;;;2.70;0.63;;;2.40;99.90;;;;;;5095129;28;20486;-77
2022/04/03 03:47:29;;;;;;;2.80;0.43;;;2.30;99.90;;;;;;5108816;28;20044;-77
2022/04/03 03:49:55;;;;;;;2.03;0.70;;;2.30;99.90;;;;;;5108943;28;20047;-77
2022/04/03 03:52:20;;;;;;;2.10;0.60;;;2.30;99.90;;;;;;5090631;28;20051;-77
2022/04/03 03:54:46;;;;;;;3.25;0.50;;;2.30;99.90;;;;;;5108564;28;20126;-77
2022/04/03 03:57:12;;;;;;;3.13;0.60;;;2.30;99.90;;;;;;5090731;28;20546;-77
2022/04/03 03:59:37;;;;;;;1.88;0.63;;;2.30;99.90;;;;;;5090899;28;20134;-77
2022/04/03 04:02:03;;;;;;;2.58;0.63;;;2.30;99.90;;;;;;5109360;28;20085;-77
2022/04/03 04:04:29;;;;;;;2.17;0.60;;;2.20;99.90;;;;;;5091413;28;20081;-77
2022/04/03 04:06:56;;;;;;;2.92;0.80;;;2.30;99.90;;;;;;5103186;28;20502;-77
2022/04/03 04:09:22;;;;;;;2.08;0.80;;;2.30;99.90;;;;;;5091612;28;20158;-77
2022/04/03 04:11:48;;;;;;;2.95;0.60;;;2.30;99.90;;;;;;5107999;28;20514;-77
2022/04/03 04:14:14;;;;;;;3.33;0.50;;;2.30;99.90;;;;;;5107666;28;20079;-77
2022/04/03 04:16:40;;;;;;;2.28;0.70;;;2.30;99.90;;;;;;5108737;28;20056;-77
2022/04/03 04:19:06;;;;;;;1.55;0.63;;;2.30;99.90;;;;;;5109314;28;20059;-77
2022/04/03 04:21:32;;;;;;;2.83;0.60;;;2.20;99.90;;;;;;5108043;28;20052;-77
2022/04/03 04:23:58;;;;;;;3.00;0.80;;;2.20;99.90;;;;;;5108435;28;20086;-77
2022/04/03 04:26:25;;;;;;;1.80;0.50;;;2.20;99.90;;;;;;5107909;28;20043;-77
2022/04/03 04:28:51;;;;;;;5.55;1.02;;;2.20;99.90;;;;;;5090649;28;20039;-77
2022/04/03 04:31:18;;;;;;;1.65;0.55;;;2.20;99.90;;;;;;5108018;28;20040;-77
2022/04/03 04:33:44;;;;;;;4.43;0.73;;;2.10;99.90;;;;;;5109440;28;20039;-77
2022/04/03 04:36:09;;;;;;;2.35;0.73;;;2.10;99.90;;;;;;5109443;28;20074;-77
2022/04/03 04:38:36;;;;;;;2.97;0.80;;;2.10;99.90;;;;;;5108800;28;20039;-77
2022/04/03 04:41:01;;;;;;;2.20;0.82;;;2.00;99.90;;;;;;5108003;28;20094;-77
2022/04/03 04:43:27;;;;;;;4.13;0.70;;;2.00;99.90;;;;;;5109249;28;20104;-77
2022/04/03 04:45:52;;;;;;;1.60;0.60;;;2.00;99.90;;;;;;5109296;28;20044;-77
2022/04/03 04:48:18;;;;;;;3.10;0.80;;;1.90;99.90;;;;;;5109459;28;20088;-77
2022/04/03 04:50:44;;;;;;;1.65;0.63;;;1.90;99.90;;;;;;5113076;28;20048;-77
2022/04/03 04:53:09;;;;;;;4.22;0.65;;;1.80;99.90;;;;;;5111545;28;20137;-77
2022/04/03 04:55:35;;;;;;;2.60;0.80;;;1.80;99.90;;;;;;5111424;28;20051;-77
2022/04/03 04:58:00;;;;;;;2.05;0.80;;;1.80;99.90;;;;;;5111757;28;20055;-77
2022/04/03 05:00:31;;;;;;;1.67;0.77;;;1.80;99.90;;;;;;5113076;28;20655;-77
2022/04/03 05:02:57;;;;;;;2.47;0.82;;;1.90;99.90;;;;;;5111951;28;20043;-77
2022/04/03 05:05:24;;;;;;;2.65;0.98;;;1.90;99.90;;;;;;5111126;28;20047;-77
2022/04/03 05:07:53;;;;;;;1.80;0.80;;;2.00;99.90;;;;;;5111108;28;20051;-77
2022/04/03 05:10:20;;;;;;;2.10;0.90;;;1.90;99.90;;;;;;5094359;28;20043;-77
2022/04/03 05:12:46;;;;;;;2.50;0.80;;;2.00;99.90;;;;;;5094407;28;20142;-77
2022/04/03 05:15:12;;;;;;;1.50;0.70;;;2.00;99.90;;;;;;5111250;28;20217;-77
2022/04/03 05:17:40;;;;;;;2.95;1.20;;;2.00;99.90;;;;;;5111366;28;20051;-77
2022/04/03 05:20:06;;;;;;;2.80;1.27;;;2.00;99.90;;;;;;5111298;28;20040;-77
2022/04/03 05:22:32;;;;;;;4.72;1.10;;;2.00;99.90;;;;;;5112104;28;20051;-77
2022/04/03 05:24:58;;;;;;;2.33;0.70;;;2.00;99.90;;;;;;5111139;28;20054;-77
2022/04/03 05:27:24;;;;;;;1.85;0.60;;;2.00;99.90;;;;;;5111162;28;20039;-77
2022/04/03 05:29:50;;;;;;;2.38;1.00;;;2.00;99.90;;;;;;5111338;28;20453;-77
2022/04/03 05:32:28;;;;;;;1.80;0.82;;;2.00;99.90;;;;;;5111259;28;20082;-77
2022/04/03 05:34:54;;;;;;;2.58;1.17;;;2.10;99.90;;;;;;5112133;28;20617;-77
2022/04/03 05:37:20;;;;;;;2.90;1.00;;;2.10;99.90;;;;;;5112225;28;20050;-77
2022/04/03 05:39:46;;;;;;;5.35;1.30;;;2.10;99.90;;;;;;5111212;28;20047;-77
2022/04/03 05:42:12;;;;;;;;;;;2.10;99.90;;;;;;5111527;28;20470;-77
2022/04/03 05:44:37;;;;;;;2.33;0.90;;;2.10;99.90;;;;;;5111580;28;19977;-77
2022/04/03 05:47:03;;;;;;;6.38;1.25;;;2.10;99.90;;;;;;5111763;28;20120;-77
2022/04/03 05:49:29;;;;;;;3.35;1.20;;;2.10;99.90;;;;;;5112181;28;20087;-77
2022/04/03 05:51:54;;;;;;;4.05;1.30;;;2.00;99.90;;;;;;5110549;28;20047;-77
2022/04/03 05:54:20;;;;;;;4.30;1.30;;;2.00;99.90;;;;;;5110348;28;20087;-77
2022/04/03 05:56:46;;;;;;;7.65;1.38;;;2.00;99.90;;;;;;5110435;28;20043;-77
2022/04/03 05:59:12;;;;;;;3.20;1.00;;;1.90;99.90;;;;;;5110194;28;20086;-77
2022/04/03 06:01:38;;;;;;;1.90;1.00;;;1.90;99.90;;;;;;5093584;28;20093;-77
2022/04/03 06:04:04;;;;;;;2.90;1.30;;;1.80;99.90;;;;;;5111592;28;20051;-77
2022/04/03 06:06:29;;;;;;;3.72;1.42;;;1.80;99.90;;;;;;5111387;28;20607;-77
2022/04/03 06:08:55;;;;;;;3.13;1.38;;;1.80;99.90;;;;;;5111561;28;20054;-77
2022/04/03 06:11:20;;;;;;;3.58;1.33;;;1.90;99.90;;;;;;5109741;28;20071;-77
2022/04/03 06:13:46;;;;;;;2.20;1.23;;;1.90;99.90;;;;;;5110807;28;20048;-77
2022/04/03 06:16:12;;;;;;;3.05;1.15;;;1.90;99.90;;;;;;5111515;28;20093;-77
2022/04/03 06:18:37;;;;;;;3.78;1.20;;;1.90;99.90;;;;;;5111541;28;20134;-77
2022/04/03 06:21:03;;;;;;;3.72;1.27;;;2.00;99.90;;;;;;5111184;28;20471;-77
2022/04/03 06:23:28;;;;;;;2.67;1.30;;;2.00;99.90;;;;;;5109792;28;20119;-77
2022/04/03 06:25:56;;;;;;;3.10;1.08;;;2.00;99.90;;;;;;5109667;28;20043;-77
2022/04/03 06:28:23;;;;;;;4.55;1.48;;;2.10;99.90;;;;;;5109674;28;20118;-77
2022/04/03 06:30:48;;;;;;;4.07;1.55;;;2.10;99.90;;;;;;5109891;28;20032;-77
2022/04/03 06:33:16;;;;;;;6.93;1.73;;;2.10;99.90;;;;;;5111522;28;20439;-76
2022/04/03 06:35:43;;;;;;;3.33;1.13;;;2.20;99.90;;;;;;5109824;28;20042;-77
2022/04/03 06:38:10;;;;;;;4.43;1.48;;;2.30;99.90;;;;;;5109188;28;20587;-77
2022/04/03 06:40:37;;;;;;;3.40;1.33;;;2.30;99.90;;;;;;5109935;28;20177;-77
2022/04/03 06:43:02;;;;;;;2.33;1.40;;;2.40;99.90;;;;;;5110301;28;20036;-77
2022/04/03 06:45:30;;;;;;;3.50;1.58;;;2.40;99.90;;;;;;5090337;28;20619;-77
2022/04/03 06:48:00;;;;;;;3.70;1.90;;;2.50;99.90;;;;;;5089978;28;20036;-77
2022/04/03 06:50:26;;;;;;;2.90;1.60;;;2.60;99.90;;;;;;5090363;28;20052;-77
2022/04/03 06:52:51;;;;;;;5.70;1.83;;;2.70;99.90;;;;;;5089424;28;20048;-77
2022/04/03 06:55:17;;;;;;;3.33;1.60;;;2.80;99.90;;;;;;5088607;28;20071;-77
2022/04/03 06:57:43;;;;;;;4.47;2.00;;;2.80;99.90;;;;;;5088919;28;20067;-77
2022/04/03 07:00:09;;;;;;;2.88;2.10;;;2.90;99.90;;;;;;5090023;28;20127;-78
2022/04/03 07:02:35;;;;;;;4.15;1.60;;;2.90;99.90;;;;;;5087387;28;20401;-77
2022/04/03 07:05:02;;;;;;;4.93;1.60;;;2.90;99.90;;;;;;5070636;28;20410;-78
2022/04/03 07:07:28;;;;;;;4.15;1.23;;;3.00;99.90;;;;;;5107121;28;20408;-77
2022/04/03 07:09:54;;;;;;;4.80;1.30;;;3.10;99.90;;;;;;5107969;28;20807;-78
2022/04/03 07:12:20;;;;;;;6.13;1.77;;;3.10;99.90;;;;;;5108066;28;20408;-77
2022/04/03 07:14:46;;;;;;;4.82;1.55;;;3.20;99.90;;;;;;5090646;28;20412;-78
2022/04/03 07:17:12;;;;;;;4.43;1.63;;;3.40;99.90;;;;;;5107896;28;20489;-78
2022/04/03 07:19:38;;;;;;;5.13;1.60;;;3.50;99.90;;;;;;5107637;28;20411;-77
2022/04/03 07:22:03;;;;;;;5.90;2.05;;;3.50;99.90;;;;;;5107200;28;20392;-78
2022/04/03 07:24:29;;;;;;;6.87;1.80;;;3.50;99.90;;;;;;5107590;28;20393;-78
2022/04/03 07:26:55;;;;;;;4.50;1.57;;;3.60;99.90;;;;;;5107552;28;20432;-78
2022/04/03 07:29:25;;;;;;;5.85;2.00;;;3.70;99.90;;;;;;5107477;28;20913;-78
2022/04/03 07:31:51;;;;;;;6.88;1.73;;;3.70;99.90;;;;;;5107395;28;20415;-77
2022/04/03 07:34:18;;;;;;;5.90;2.47;;;3.80;99.90;;;;;;5107721;28;20400;-78
2022/04/03 07:36:43;;;;;;;5.53;1.80;;;3.80;99.90;;;;;;5107724;28;20763;-78
2022/04/03 07:39:10;;;;;;;7.03;1.70;;;3.90;99.90;;;;;;5107242;28;20403;-78
2022/04/03 07:41:37;;;;;;;5.15;1.88;;;4.00;99.90;;;;;;5107471;28;20408;-78
2022/04/03 07:44:05;;;;;;;5.22;2.20;;;4.00;99.90;;;;;;5086632;28;20412;-78
2022/04/03 07:46:30;;;;;;;5.85;1.92;;;4.10;99.90;;;;;;5089918;28;21085;-79
2022/04/03 07:48:56;;;;;;;6.60;1.60;;;4.20;99.90;;;;;;5073705;28;20400;-78
2022/04/03 07:51:23;;;;;;;4.63;1.60;;;4.20;99.90;;;;;;5090470;28;20453;-77
2022/04/03 07:53:49;;;;;;;4.57;1.20;;;4.40;99.90;;;;;;5090166;28;20951;-77
2022/04/03 07:56:15;;;;;;;5.10;1.13;;;4.50;99.90;;;;;;5090153;28;20403;-77
2022/04/03 07:58:41;;;;;;;4.65;0.68;;;4.60;99.90;;;;;;5107838;28;20408;-77
2022/04/03 08:01:07;;;;;;;4.72;0.60;;;4.70;99.90;;;;;;5090594;28;20396;-77
2022/04/03 08:03:33;;;;;;;4.60;0.60;;;4.80;99.90;;;;;;5108309;28;20925;-77
2022/04/03 08:05:59;;;;;;;4.70;0.60;;;4.90;99.90;;;;;;5101850;28;20502;-77
2022/04/03 08:08:24;;;;;;;4.07;0.80;;;5.00;99.90;;;;;;5106612;28;20407;-77
2022/04/03 08:10:50;;;;;;;3.73;0.97;;;5.10;99.90;;;;;;5105694;28;20408;-77
2022/04/03 08:13:16;;;;;;;5.47;0.70;;;5.20;99.90;;;;;;5106753;28;20415;-77
2022/04/03 08:15:42;;;;;;;4.00;0.75;;;5.30;99.90;;;;;;5088656;28;20405;-77
2022/04/03 08:18:08;;;;;;;3.95;0.60;;;5.40;99.90;;;;;;5106043;28;20404;-77
2022/04/03 08:20:33;;;;;;;3.65;0.75;;;5.50;99.90;;;;;;5106807;28;20889;-77
2022/04/03 08:23:03;;;;;;;3.47;0.70;;;5.70;99.90;;;;;;5109213;28;20412;-77
2022/04/03 08:25:30;;;;;;;5.38;0.70;;;5.80;99.90;;;;;;5112174;28;20420;-77
2022/04/03 08:27:56;;;;;;;3.67;0.80;;;5.80;99.90;;;;;;5111493;28;20953;-77
2022/04/03 08:30:30;;;;;;;5.28;0.80;;;5.80;99.90;;;;;;5111343;28;20396;-77
2022/04/03 08:32:55;;;;;;;4.00;0.63;;;5.80;99.90;;;;;;5109513;28;20415;-77
2022/04/03 08:35:24;;;;;;;4.77;0.60;;;6.00;99.90;;;;;;5110792;28;20408;-77
2022/04/03 08:37:50;;;;;;;3.43;0.80;;;6.10;99.90;;;;;;5110208;28;20422;-77
2022/04/03 08:40:16;;;;;;;5.50;0.90;;;6.20;99.90;;;;;;5109728;28;20767;-77
2022/04/03 08:42:42;;;;;;;4.60;0.93;;;6.20;99.90;;;;;;5110628;27;20396;-77
2022/04/03 08:45:13;;;;;;;5.00;0.88;;;6.20;99.90;;;;;;5109040;28;20492;-77
2022/04/03 08:47:45;;;;;;;4.80;0.80;;;6.20;99.90;;;;;;5110509;28;20403;-77
2022/04/03 08:50:15;;;;;;;4.88;0.70;;;6.20;99.90;;;;;;5110640;28;20520;-78
2022/04/03 08:52:45;;;;;;;4.47;0.63;;;6.20;99.90;;;;;;5109018;28;20400;-77
2022/04/03 08:55:11;;;;;;;2.88;0.68;;;6.30;99.90;;;;;;5108662;28;20412;-77
2022/04/03 08:57:37;;;;;;;6.75;0.70;;;6.30;99.90;;;;;;5110036;28;20448;-78
2022/04/03 09:00:04;;;;;;;5.10;0.80;;;6.30;99.90;;;;;;5110601;28;20435;-78
2022/04/03 09:02:30;;;;;;;4.03;0.57;;;6.40;99.90;;;;;;5097753;28;20507;-80
2022/04/03 09:04:56;;;;;;;3.85;0.60;;;6.50;99.90;;;;;;5109175;28;20812;-79
2022/04/03 09:07:21;;;;;;;2.03;0.30;;;6.70;99.90;;;;;;5103080;28;20511;-79
2022/04/03 09:10:04;;;;;;;3.67;0.40;;;6.80;99.90;;;;;;5110380;28;20406;-79
2022/04/03 09:12:30;;;;;;;1.92;0.35;;;6.90;99.90;;;;;;5111183;28;20446;-79
2022/04/03 09:14:56;;;;;;;3.08;0.47;;;6.90;99.90;;;;;;5110287;28;20930;-79
2022/04/03 09:17:44;;;;;;;3.65;0.65;;;7.10;99.90;;;;;;5111178;28;20475;-79
2022/04/03 09:20:12;;;;;;;3.40;0.55;;;7.30;99.90;;;;;;5110342;28;20404;-79
2022/04/03 09:22:41;;;;;;;3.15;0.30;;;7.60;99.90;;;;;;5110761;28;20482;-80
2022/04/03 09:25:12;;;;;;;5.45;0.50;;;8.10;99.90;;;;;;5091670;28;20398;-79
2022/04/03 09:27:53;;;;;;;3.30;0.43;;;8.70;99.90;;;;;;5090950;28;20629;-79
2022/04/03 09:30:20;;;;;;;2.90;0.38;;;9.00;99.90;;;;;;5089520;28;20436;-79
2022/04/03 09:32:55;;;;;;;2.60;0.30;;;9.60;99.90;;;;;;5106285;28;20942;-80
2022/04/03 09:35:26;;;;;;;1.90;0.32;;;10.30;99.90;;;;;;5109012;28;20423;-80
2022/04/03 09:38:14;;;;;;;4.20;0.50;;;10.50;98.00;;;;;;5107432;28;20492;-79
2022/04/03 09:40:47;;;;;;;6.25;0.60;;;10.20;97.80;;;;;;5108886;28;20435;-80
2022/04/03 09:43:31;;;;;;;2.60;0.40;;;10.80;99.40;;;;;;5101703;28;20767;-80
2022/04/03 09:45:59;;;;;;;2.92;0.55;;;11.40;97.00;;;;;;5107353;28;20424;-80
2022/04/03 09:48:33;;;;;;;3.88;0.43;;;11.20;94.60;;;;;;5109057;28;20392;-78
2022/04/03 09:51:05;;;;;;;4.88;0.60;;;10.50;94.40;;;;;;5108178;28;20430;-79
2022/04/03 09:53:47;;;;;;;2.35;0.60;;;10.20;97.30;;;;;;5109187;28;20420;-79
2022/04/03 09:56:31;;;;;;;4.22;0.50;;;10.70;98.60;;;;;;5106653;28;20467;-79
2022/04/03 09:58:59;;;;;;;3.15;0.50;;;10.90;96.30;;;;;;5092451;28;20500;-79
2022/04/03 10:01:36;;;;;;;2.13;0.40;;;10.40;95.40;;;;;;5095347;28;20436;-78
2022/04/03 10:04:10;;;;;;;3.20;0.50;;;9.80;95.80;;;;;;5093790;28;20437;-80
2022/04/03 10:06:40;;;;;;;3.70;0.63;;;9.50;97.90;;;;;;5097786;28;20436;-80
2022/04/03 10:09:11;;;;;;;5.35;0.50;;;10.30;99.10;;;;;;5088926;28;20526;-79
2022/04/03 10:11:37;;;;;;;3.45;0.55;;;10.70;96.50;;;;;;5091935;28;20465;-78
2022/04/03 10:14:03;;;;;;;2.73;0.33;;;10.40;95.50;;;;;;5107715;28;20790;-78
2022/04/03 10:16:29;;;;;;;3.75;0.40;;;9.90;95.00;;;;;;5096866;28;20503;-76
2022/04/03 10:18:56;;;;;;;4.72;0.47;;;9.70;95.70;;;;;;5108412;28;20499;-77
2022/04/03 10:21:29;;;;;;;2.47;0.40;;;10.00;95.40;;;;;;5106825;28;20430;-76
2022/04/03 10:24:16;;;;;;;3.08;0.50;;;10.10;94.30;;;;;;5109286;28;20420;-76
2022/04/03 10:26:46;;;;;;;3.47;0.40;;;9.70;94.90;;;;;;5108983;28;20432;-76
2022/04/03 10:29:13;;;;;;;2.72;0.50;;;9.40;95.60;;;;;;5108712;28;20404;-77
2022/04/03 10:31:53;;;;;;;2.77;0.50;;;9.80;96.80;;;;;;5108747;28;20929;-76
2022/04/03 10:34:21;;;;;;;4.82;0.50;;;10.50;95.10;;;;;;5109725;28;20411;-76
2022/04/03 10:36:49;;;;;;;3.50;0.50;;;10.50;95.10;;;;;;5109073;28;20411;-76
2022/04/03 10:39:30;;;;;;;2.60;0.40;;;10.30;95.40;;;;;;5109821;28;20789;-76
2022/04/03 10:42:16;;;;;;;3.33;0.63;;;10.60;94.30;;;;;;5108845;28;20425;-76
2022/04/03 10:44:42;;;;;;;3.33;0.50;;;10.50;93.80;;;;;;5093813;28;20497;-76
2022/04/03 10:47:17;;;;;;;2.83;0.50;;;11.00;93.70;;;;;;5086316;28;20521;-76
2022/04/03 10:50:03;;;;;;;1.60;0.30;;;11.90;94.00;;;;;;5087026;28;20441;-76
2022/04/03 10:52:38;;;;;;;2.42;0.35;;;12.90;91.10;;;;;;5087096;28;21019;-76
2022/04/03 10:55:12;;;;;;;2.77;0.40;;;13.70;89.10;;;;;;5087070;28;20471;-77
2022/04/03 10:57:45;;;;;;;2.33;0.40;;;14.40;85.20;;;;;;5086683;28;20499;-77
2022/04/03 11:00:13;;;;;;;3.63;0.38;;;14.70;80.60;;;;;;5086893;28;20405;-77
2022/04/03 11:02:54;;;;;;;2.13;0.47;;;15.00;81.20;;;;;;5088305;28;20410;-77
2022/04/03 11:05:26;;;;;;;2.22;0.40;;;14.60;75.30;;;;;;5089845;28;20413;-76
2022/04/03 11:08:04;;;;;;;2.93;0.50;;;13.50;76.30;;;;;;5107175;28;20411;-76
2022/04/03 11:10:46;;;;;;;4.88;0.60;;;12.50;78.40;;;;;;5090172;28;20854;-76
2022/04/03 11:13:18;;;;;;;2.13;0.30;;;11.50;79.30;;;;;;5106714;28;20408;-76
2022/04/03 11:15:56;;;;;;;5.33;0.77;;;10.80;81.80;;;;;;5108184;28;20483;-76
2022/04/03 11:18:49;;;;;;;3.88;0.55;;;10.20;86.50;;;;;;5106801;28;20408;-76
2022/04/03 11:21:24;;;;;;;2.80;0.40;;;10.40;91.20;;;;;;5106621;28;20469;-76
2022/04/03 11:23:54;;;;;;;2.83;0.50;;;11.50;91.00;;;;;;5106499;28;21043;-76
2022/04/03 11:26:22;;;;;;;2.33;0.40;;;12.40;89.80;;;;;;5106433;28;20424;-77
2022/04/03 11:28:48;;;;;;;2.08;0.40;;;13.20;85.50;;;;;;5106396;28;20894;-77
2022/04/03 11:31:15;;;;;;;1.90;0.30;;;13.80;84.10;;;;;;5106628;28;20404;-76
2022/04/03 11:33:42;;;;;;;3.20;0.40;;;14.40;82.70;;;;;;5106525;28;20436;-76
2022/04/03 11:36:12;;;;;;;3.03;0.40;;;14.60;76.60;;;;;;5107566;28;20407;-76
2022/04/03 11:38:49;;;;;;;1.75;0.20;;;15.00;74.90;;;;;;5106463;28;20882;-77
2022/04/03 11:41:22;;;;;;;3.80;0.30;;;15.10;72.20;;;;;;5106394;28;20835;-77
2022/04/03 11:43:57;;;;;;;1.30;0.20;;;15.10;70.80;;;;;;5104697;28;20404;-77
2022/04/03 11:46:23;;;;;;;1.20;0.10;;;15.40;69.80;;;;;;5089495;28;20970;-77
2022/04/03 11:48:49;;;;;;;1.98;0.20;;;15.80;70.00;;;;;;5088979;28;20734;-77
2022/04/03 11:51:18;;;;;;;2.87;0.30;;;16.10;70.10;;;;;;5089119;28;20412;-78
2022/04/03 11:53:54;;;;;;;2.50;0.30;;;16.10;65.50;;;;;;5107520;28;20432;-76
2022/04/03 11:56:21;;;;;;;1.20;0.28;;;15.60;65.10;;;;;;5107154;28;20392;-76
2022/04/03 11:58:54;;;;;;;1.90;0.30;;;15.30;62.90;;;;;;5107748;28;20408;-76
2022/04/03 12:01:34;;;;;;;2.15;0.30;;;14.90;65.50;;;;;;5108024;28;20388;-76
2022/04/03 12:04:10;;;;;;;1.95;0.30;;;14.30;65.00;;;;;;5108691;28;20404;-76
2022/04/03 12:06:37;;;;;;;2.88;0.32;;;14.10;66.00;;;;;;5108167;28;20432;-77
2022/04/03 12:09:09;;;;;;;2.35;0.20;;;14.40;65.70;;;;;;5107418;28;20495;-77
2022/04/03 12:11:36;;;;;;;1.80;0.25;;;14.80;62.40;;;;;;5106287;28;20411;-76
2022/04/03 12:14:04;;;;;;;1.83;0.20;;;15.20;65.70;;;;;;5107279;28;20421;-76
2022/04/03 12:16:32;;;;;;;1.58;0.30;;;15.00;61.60;;;;;;5108117;28;20431;-76
2022/04/03 12:19:08;;;;;;;2.60;0.30;;;14.50;61.60;;;;;;5089847;28;20405;-76
2022/04/03 12:21:40;;;;;;;2.38;0.30;;;14.30;63.40;;;;;;5106514;28;20417;-76
2022/04/03 12:24:11;;;;;;;1.77;0.30;;;14.40;64.10;;;;;;5108056;28;20910;-76
2022/04/03 12:26:39;;;;;;;1.92;0.30;;;14.30;64.00;;;;;;5106816;28;20634;-76
2022/04/03 12:29:07;;;;;;;3.40;0.40;;;13.90;62.60;;;;;;5107759;28;20463;-76
2022/04/03 12:31:34;;;;;;;2.08;0.30;;;13.90;64.60;;;;;;5108024;28;20400;-76
2022/04/03 12:34:18;;;;;;;3.33;0.40;;;13.60;64.30;;;;;;5106660;28;20408;-76
2022/04/03 12:36:45;;;;;;;1.73;0.30;;;13.40;66.60;;;;;;5107826;28;20395;-76
2022/04/03 12:39:45;;;;;;;2.85;0.40;;;13.60;68.80;;;;;;5107943;28;20407;-76
2022/04/03 12:42:30;;;;;;;3.05;0.50;;;14.10;69.10;;;;;;5107976;28;20407;-76
2022/04/03 12:45:00;;;;;;;3.97;0.30;;;13.80;68.00;;;;;;5097109;28;20433;-78
2022/04/03 12:47:40;;;;;;;2.95;0.40;;;13.50;67.60;;;;;;5099617;28;20439;-76
2022/04/03 12:50:06;;;;;;;2.20;0.40;;;13.00;68.90;;;;;;5103882;28;20436;-76
2022/04/03 12:52:44;;;;;;;3.23;0.47;;;13.10;70.20;;;;;;5106579;28;20441;-76
2022/04/03 13:00:53;;;;;;;4.50;0.30;;;13.90;67.10;;;;;;5097449;28;20416;-76
2022/04/03 13:03:49;;;;;;;3.30;0.57;;;14.20;68.20;;;;;;5106332;28;20412;-76
2022/04/03 13:06:23;;;;;;;1.80;0.20;;;13.70;65.50;;;;;;5069111;28;21181;-76
2022/04/03 13:08:57;;;;;;;2.45;0.30;;;13.90;63.90;;;;;;5092543;28;20505;-76